createdAt,value
2022-08-08T00:00:50.279Z,14.30
2022-08-08T00:00:56.317Z,14.30
2022-08-08T00:01:06.671Z,14.30
2022-08-08T00:02:15.371Z,14.31
2022-08-08T00:02:43.682Z,14.29
2022-08-08T00:03:32.921Z,14.30
2022-08-08T00:04:25.018Z,14.27
2022-08-08T00:05:12.831Z,14.27
2022-08-08T00:06:03.881Z,14.26
2022-08-08T00:06:52.358Z,14.24
2022-08-08T00:07:42.326Z,14.21
2022-08-08T00:08:32.327Z,14.19
2022-08-08T00:09:22.306Z,14.17
2022-08-08T00:10:12.383Z,14.13
2022-08-08T00:11:08.025Z,14.11
2022-08-08T00:12:08.038Z,14.09
2022-08-08T00:12:43.267Z,14.08
2022-08-08T00:14:16.405Z,14.06
2022-08-08T00:14:56.923Z,14.06
2022-08-08T00:15:23.814Z,13.99
2022-08-08T00:16:03.227Z,13.91
2022-08-08T00:16:52.226Z,13.79
2022-08-08T00:18:02.735Z,13.68
2022-08-08T00:18:33.215Z,13.61
2022-08-08T00:19:22.234Z,13.55
2022-08-08T00:20:14.629Z,13.55
2022-08-08T00:21:05.977Z,13.54
2022-08-08T00:21:53.166Z,13.55
2022-08-08T00:22:42.167Z,13.57
2022-08-08T00:23:42.216Z,13.59
2022-08-08T00:24:24.192Z,13.61
2022-08-08T00:25:13.134Z,13.63
2022-08-08T00:26:02.116Z,13.63
2022-08-08T00:26:52.114Z,13.66
2022-08-08T00:27:42.384Z,13.65
2022-08-08T00:28:35.803Z,13.66
2022-08-08T00:29:45.245Z,13.66
2022-08-08T00:30:15.806Z,13.68
2022-08-08T00:32:20.313Z,13.65
2022-08-08T00:32:32.545Z,13.66
2022-08-08T00:32:44.667Z,13.63
2022-08-08T00:34:17.827Z,13.66
2022-08-08T00:34:23.023Z,13.66
2022-08-08T00:35:15.359Z,13.62
2022-08-08T00:36:03.024Z,13.63
2022-08-08T00:36:54.906Z,13.61
2022-08-08T00:37:47.918Z,13.57
2022-08-08T00:38:52.156Z,13.55
2022-08-08T00:41:08.112Z,13.53
2022-08-08T00:41:10.084Z,13.53
2022-08-08T00:41:10.328Z,13.54
2022-08-08T00:42:07.922Z,13.48
2022-08-08T00:42:43.302Z,13.47
2022-08-08T00:43:40.170Z,13.44
2022-08-08T00:44:22.904Z,13.38
2022-08-08T00:45:21.126Z,13.35
2022-08-08T00:46:02.892Z,13.32
2022-08-08T00:46:58.048Z,13.35
2022-08-08T00:48:05.463Z,13.35
2022-08-08T00:48:33.846Z,13.35
2022-08-08T00:49:22.869Z,13.31
2022-08-08T00:50:11.843Z,13.29
2022-08-08T00:51:01.833Z,13.27
2022-08-08T00:51:51.893Z,13.25
2022-08-08T00:52:43.526Z,13.25
2022-08-08T00:53:32.811Z,13.27
2022-08-08T00:54:22.792Z,13.27
2022-08-08T00:55:12.783Z,13.27
2022-08-08T00:56:01.793Z,13.27
2022-08-08T00:56:51.764Z,13.28
2022-08-08T00:57:41.752Z,13.28
2022-08-08T00:58:32.579Z,13.27
2022-08-08T00:59:44.397Z,13.25
2022-08-08T01:00:12.760Z,13.21
2022-08-08T01:01:01.790Z,13.14
2022-08-08T01:01:51.757Z,13.10
2022-08-08T01:03:58.421Z,13.04
2022-08-08T01:04:02.026Z,13.06
2022-08-08T01:04:22.672Z,13.03
2022-08-08T01:05:41.977Z,13.01
2022-08-08T01:06:02.683Z,13.01
2022-08-08T01:06:51.683Z,13.01
2022-08-08T01:07:55.596Z,13.03
2022-08-08T01:08:32.635Z,13.03
2022-08-08T01:09:35.417Z,13.04
2022-08-08T01:10:12.611Z,13.04
2022-08-08T01:11:01.601Z,13.04
2022-08-08T01:11:51.983Z,13.06
2022-08-08T01:12:41.603Z,13.06
2022-08-08T01:13:43.578Z,13.06
2022-08-08T01:14:54.809Z,13.09
2022-08-08T01:15:12.570Z,13.09
2022-08-08T01:16:02.547Z,13.12
2022-08-08T01:16:51.539Z,13.13
2022-08-08T01:17:51.506Z,13.12
2022-08-08T01:18:53.418Z,13.12
2022-08-08T01:19:42.271Z,13.13
2022-08-08T01:20:13.299Z,13.13
2022-08-08T01:21:01.503Z,13.10
2022-08-08T01:22:10.056Z,13.14
2022-08-08T01:22:43.150Z,13.13
2022-08-08T01:24:06.347Z,13.13
2022-08-08T01:24:22.448Z,13.10
2022-08-08T01:25:16.735Z,13.06
2022-08-08T01:26:11.462Z,13.04
2022-08-08T01:26:52.430Z,13.03
2022-08-08T01:27:43.565Z,13.01
2022-08-08T01:28:31.402Z,13.01
2022-08-08T01:29:23.842Z,12.99
2022-08-08T01:30:11.389Z,12.98
2022-08-08T01:31:01.379Z,12.96
2022-08-08T01:32:13.588Z,12.95
2022-08-08T01:32:42.369Z,12.94
2022-08-08T01:33:43.040Z,12.91
2022-08-08T01:34:22.361Z,12.89
2022-08-08T01:35:12.500Z,12.87
2022-08-08T01:36:01.430Z,12.85
2022-08-08T01:36:51.309Z,12.79
2022-08-08T01:37:56.900Z,12.74
2022-08-08T01:38:32.308Z,12.67
2022-08-08T01:39:23.421Z,12.61
2022-08-08T01:40:14.649Z,12.56
2022-08-08T01:41:01.259Z,12.55
2022-08-08T01:41:51.255Z,12.54
2022-08-08T01:42:41.238Z,12.54
2022-08-08T01:43:34.775Z,12.55
2022-08-08T01:44:22.236Z,12.54
2022-08-08T01:45:13.950Z,12.52
2022-08-08T01:46:01.197Z,12.49
2022-08-08T01:46:52.348Z,12.49
2022-08-08T01:48:14.500Z,12.48
2022-08-08T01:48:32.179Z,12.48
2022-08-08T01:49:23.470Z,12.46
2022-08-08T01:50:12.160Z,12.46
2022-08-08T01:51:02.151Z,12.48
2022-08-08T01:52:51.646Z,12.49
2022-08-08T01:52:59.128Z,12.51
2022-08-08T01:55:16.029Z,12.48
2022-08-08T01:55:16.603Z,12.52
2022-08-08T01:55:25.813Z,12.46
2022-08-08T01:56:27.242Z,12.44
2022-08-08T01:56:52.096Z,12.43
2022-08-08T01:58:12.111Z,12.41
2022-08-08T01:58:39.789Z,12.43
2022-08-08T01:59:22.046Z,12.43
2022-08-08T02:00:13.025Z,12.41
2022-08-08T02:01:01.103Z,12.43
2022-08-08T02:01:59.881Z,12.34
2022-08-08T02:02:42.651Z,12.26
2022-08-08T02:03:54.401Z,12.23
2022-08-08T02:04:22.109Z,12.22
2022-08-08T02:05:10.993Z,12.21
2022-08-08T02:06:00.981Z,12.21
2022-08-08T02:06:52.011Z,12.25
2022-08-08T02:07:41.579Z,12.29
2022-08-08T02:08:33.978Z,12.33
2022-08-08T02:10:01.974Z,12.36
2022-08-08T02:10:12.409Z,12.37
2022-08-08T02:11:00.916Z,12.38
2022-08-08T02:11:58.794Z,12.38
2022-08-08T02:12:41.906Z,12.38
2022-08-08T02:13:54.834Z,12.37
2022-08-08T02:14:21.904Z,12.37
2022-08-08T02:15:12.389Z,12.33
2022-08-08T02:16:00.865Z,12.31
2022-08-08T02:16:50.875Z,12.29
2022-08-08T02:17:43.299Z,12.26
2022-08-08T02:18:30.842Z,12.26
2022-08-08T02:19:57.021Z,12.26
2022-08-08T02:20:16.301Z,12.29
2022-08-08T02:21:08.231Z,12.26
2022-08-08T02:21:51.804Z,12.29
2022-08-08T02:22:52.568Z,12.26
2022-08-08T02:23:35.420Z,12.26
2022-08-08T02:24:22.798Z,12.26
2022-08-08T02:25:11.721Z,12.25
2022-08-08T02:26:00.892Z,12.23
2022-08-08T02:26:50.750Z,12.23
2022-08-08T02:27:42.707Z,12.22
2022-08-08T02:28:35.305Z,12.21
2022-08-08T02:29:21.733Z,12.19
2022-08-08T02:30:21.269Z,12.16
2022-08-08T02:31:02.086Z,12.12
2022-08-08T02:31:58.753Z,12.07
2022-08-08T02:32:41.682Z,12.05
2022-08-08T02:34:00.243Z,12.03
2022-08-08T02:34:33.076Z,12.03
2022-08-08T02:35:12.073Z,12.05
2022-08-08T02:36:04.106Z,12.08
2022-08-08T02:36:50.635Z,12.08
2022-08-08T02:37:53.199Z,12.07
2022-08-08T02:38:31.634Z,12.08
2022-08-08T02:39:42.432Z,12.08
2022-08-08T02:40:12.126Z,12.05
2022-08-08T02:41:00.583Z,11.94
2022-08-08T02:41:58.982Z,11.85
2022-08-08T02:42:42.177Z,11.84
2022-08-08T02:44:35.055Z,11.84
2022-08-08T02:44:39.044Z,11.82
2022-08-08T02:45:18.484Z,11.84
2022-08-08T02:46:01.537Z,11.85
2022-08-08T02:46:50.854Z,11.87
2022-08-08T02:47:40.523Z,11.88
2022-08-08T02:48:31.518Z,11.88
2022-08-08T02:49:24.358Z,11.90
2022-08-08T02:50:17.722Z,11.96
2022-08-08T02:51:01.491Z,11.94
2022-08-08T02:51:56.840Z,11.98
2022-08-08T02:52:41.474Z,12.00
2022-08-08T02:53:30.609Z,11.97
2022-08-08T02:54:20.431Z,11.97
2022-08-08T02:55:10.605Z,11.96
2022-08-08T02:56:01.414Z,11.90
2022-08-08T02:56:50.930Z,11.87
2022-08-08T02:57:45.091Z,11.84
2022-08-08T02:58:31.394Z,11.82
2022-08-08T02:59:36.836Z,11.82
2022-08-08T03:00:26.874Z,11.82
2022-08-08T03:01:01.461Z,11.84
2022-08-08T03:01:50.922Z,11.84
2022-08-08T03:02:40.343Z,11.84
2022-08-08T03:05:00.908Z,11.81
2022-08-08T03:05:04.104Z,11.79
2022-08-08T03:05:11.322Z,11.78
2022-08-08T03:06:00.319Z,11.79
2022-08-08T03:06:50.301Z,11.79
2022-08-08T03:07:41.395Z,11.81
2022-08-08T03:08:30.269Z,11.79
2022-08-08T03:09:20.279Z,11.79
2022-08-08T03:10:31.746Z,11.78
2022-08-08T03:11:01.270Z,11.78
2022-08-08T03:12:02.706Z,11.75
2022-08-08T03:13:01.479Z,11.75
2022-08-08T03:15:53.579Z,11.77
2022-08-08T03:15:58.222Z,11.74
2022-08-08T03:15:58.357Z,11.74
2022-08-08T03:16:05.289Z,11.74
2022-08-08T03:16:51.197Z,11.74
2022-08-08T03:17:40.677Z,11.72
2022-08-08T03:18:31.058Z,11.69
2022-08-08T03:19:20.264Z,11.67
2022-08-08T03:20:10.353Z,11.69
2022-08-08T03:21:00.168Z,11.69
2022-08-08T03:21:58.408Z,11.69
2022-08-08T03:22:56.823Z,11.69
2022-08-08T03:23:54.728Z,11.66
2022-08-08T03:24:21.105Z,11.66
2022-08-08T03:25:14.571Z,11.66
2022-08-08T03:26:01.107Z,11.66
2022-08-08T03:26:50.068Z,11.64
2022-08-08T03:27:41.808Z,11.64
2022-08-08T03:28:30.049Z,11.66
2022-08-08T03:29:26.654Z,11.63
2022-08-08T03:30:11.027Z,11.63
2022-08-08T03:31:07.554Z,11.62
2022-08-08T03:32:05.221Z,11.62
2022-08-08T03:32:41.493Z,11.60
2022-08-08T03:33:55.039Z,11.62
2022-08-08T03:34:20.986Z,11.62
2022-08-08T03:35:09.998Z,11.60
2022-08-08T03:35:59.967Z,11.62
2022-08-08T03:36:49.958Z,11.60
2022-08-08T03:38:54.041Z,11.56
2022-08-08T03:38:54.775Z,11.59
2022-08-08T03:39:20.964Z,11.53
2022-08-08T03:40:18.308Z,11.53
2022-08-08T03:41:01.057Z,11.49
2022-08-08T03:42:26.598Z,11.48
2022-08-08T03:42:47.695Z,11.48
2022-08-08T03:43:31.438Z,11.48
2022-08-08T03:44:25.567Z,11.46
2022-08-08T03:46:04.926Z,11.46
2022-08-08T03:46:07.443Z,11.48
2022-08-08T03:46:50.867Z,11.48
2022-08-08T03:47:45.945Z,11.46
2022-08-08T03:49:09.561Z,11.44
2022-08-08T03:49:56.764Z,11.42
2022-08-08T03:50:11.110Z,11.38
2022-08-08T03:51:00.811Z,11.35
2022-08-08T03:51:51.436Z,11.33
2022-08-08T03:52:45.188Z,11.31
2022-08-08T03:53:42.582Z,11.30
2022-08-08T03:54:40.515Z,11.31
2022-08-08T03:55:20.370Z,11.30
2022-08-08T03:56:04.449Z,11.28
2022-08-08T03:56:50.735Z,11.31
2022-08-08T03:58:32.103Z,11.31
2022-08-08T03:58:37.527Z,11.31
2022-08-08T03:59:22.684Z,11.30
2022-08-08T04:00:11.853Z,11.30
2022-08-08T04:01:23.009Z,11.28
2022-08-08T04:02:15.728Z,11.27
2022-08-08T04:02:47.279Z,11.27
2022-08-08T04:03:59.028Z,11.24
2022-08-08T04:04:20.667Z,11.23
2022-08-08T04:05:10.143Z,11.23
2022-08-08T04:05:59.633Z,11.21
2022-08-08T04:06:49.623Z,11.23
2022-08-08T04:07:39.635Z,11.20
2022-08-08T04:08:33.463Z,11.20
2022-08-08T04:09:19.602Z,11.23
2022-08-08T04:10:10.176Z,11.21
2022-08-08T04:10:59.794Z,11.21
2022-08-08T04:11:58.747Z,11.21
2022-08-08T04:12:40.583Z,11.23
2022-08-08T04:13:29.543Z,11.24
2022-08-08T04:14:34.267Z,11.24
2022-08-08T04:15:11.182Z,11.23
2022-08-08T04:16:03.783Z,11.26
2022-08-08T04:16:50.520Z,11.24
2022-08-08T04:17:58.605Z,11.23
2022-08-08T04:18:30.490Z,11.21
2022-08-08T04:19:25.239Z,11.20
2022-08-08T04:20:10.471Z,11.17
2022-08-08T04:20:59.473Z,11.17
2022-08-08T04:21:49.453Z,11.13
2022-08-08T04:22:39.463Z,11.13
2022-08-08T04:24:04.711Z,11.12
2022-08-08T04:24:29.585Z,11.12
2022-08-08T04:25:15.331Z,11.09
2022-08-08T04:26:03.123Z,11.09
2022-08-08T04:26:57.310Z,11.08
2022-08-08T04:28:03.381Z,11.06
2022-08-08T04:28:36.654Z,11.06
2022-08-08T04:29:20.371Z,11.06
2022-08-08T04:30:17.293Z,11.05
2022-08-08T04:31:01.111Z,11.03
2022-08-08T04:31:58.272Z,11.05
2022-08-08T04:32:40.982Z,11.06
2022-08-08T04:33:30.322Z,11.05
2022-08-08T04:34:20.322Z,11.05
2022-08-08T04:35:12.159Z,11.08
2022-08-08T04:35:59.803Z,11.08
2022-08-08T04:36:49.684Z,11.09
2022-08-08T04:37:39.298Z,11.08
2022-08-08T04:38:29.260Z,11.06
2022-08-08T04:40:05.961Z,11.06
2022-08-08T04:40:12.239Z,11.02
2022-08-08T04:40:59.293Z,11.01
2022-08-08T04:41:49.229Z,10.99
2022-08-08T04:42:46.689Z,10.98
2022-08-08T04:43:31.926Z,10.94
2022-08-08T04:44:20.208Z,10.91
2022-08-08T04:45:09.213Z,10.91
2022-08-08T04:45:59.189Z,10.93
2022-08-08T04:46:49.178Z,10.95
2022-08-08T04:47:46.496Z,10.98
2022-08-08T04:48:30.170Z,10.99
2022-08-08T04:49:19.153Z,11.02
2022-08-08T04:50:09.137Z,11.02
2022-08-08T04:51:00.147Z,11.03
2022-08-08T04:51:57.298Z,11.06
2022-08-08T04:52:40.118Z,11.06
2022-08-08T04:54:27.682Z,11.06
2022-08-08T04:54:39.110Z,11.08
2022-08-08T04:55:10.079Z,11.06
2022-08-08T04:55:59.079Z,11.01
2022-08-08T04:56:49.058Z,10.93
2022-08-08T04:57:39.060Z,10.91
2022-08-08T04:58:29.429Z,10.91
2022-08-08T04:59:19.038Z,10.93
2022-08-08T05:00:10.258Z,10.95
2022-08-08T05:00:59.020Z,10.98
2022-08-08T05:01:49.087Z,10.98
2022-08-08T05:02:42.088Z,10.98
2022-08-08T05:04:10.214Z,10.98
2022-08-08T05:04:19.997Z,10.99
2022-08-08T05:05:15.949Z,11.01
2022-08-08T05:06:00.020Z,11.02
2022-08-08T05:06:50.575Z,11.05
2022-08-08T05:07:42.641Z,11.06
2022-08-08T05:08:28.937Z,11.08
2022-08-08T05:09:18.944Z,11.08
2022-08-08T05:10:12.975Z,11.11
2022-08-08T05:10:58.906Z,11.09
2022-08-08T05:11:56.897Z,11.12
2022-08-08T05:12:43.053Z,11.12
2022-08-08T05:13:29.877Z,11.12
2022-08-08T05:14:20.571Z,11.12
2022-08-08T05:15:08.856Z,11.11
2022-08-08T05:16:54.142Z,11.13
2022-08-08T05:16:55.310Z,11.13
2022-08-08T05:17:54.335Z,11.13
2022-08-08T05:18:29.834Z,11.13
2022-08-08T05:20:12.355Z,11.16
2022-08-08T05:20:14.646Z,11.19
2022-08-08T05:20:59.796Z,11.17
2022-08-08T05:21:59.842Z,11.16
2022-08-08T05:22:39.886Z,11.17
2022-08-08T05:23:29.901Z,11.19
2022-08-08T05:24:26.058Z,11.19
2022-08-08T05:25:09.743Z,11.19
2022-08-08T05:26:00.327Z,11.17
2022-08-08T05:26:48.894Z,11.19
2022-08-08T05:27:41.360Z,11.19
2022-08-08T05:28:55.703Z,11.17
2022-08-08T05:29:19.722Z,11.11
2022-08-08T05:30:08.688Z,11.08
2022-08-08T05:31:08.647Z,11.05
2022-08-08T05:32:03.339Z,11.01
2022-08-08T05:32:40.013Z,10.99
2022-08-08T05:33:28.655Z,10.95
2022-08-08T05:34:19.646Z,10.98
2022-08-08T05:35:09.625Z,10.99
2022-08-08T05:35:58.642Z,11.01
2022-08-08T05:36:48.646Z,11.03
2022-08-08T05:37:52.265Z,11.03
2022-08-08T05:38:32.291Z,11.09
2022-08-08T05:39:18.614Z,11.09
2022-08-08T05:40:09.298Z,11.16
2022-08-08T05:40:59.020Z,11.17
2022-08-08T05:41:55.524Z,11.20
2022-08-08T05:42:39.574Z,11.21
2022-08-08T05:44:02.345Z,11.24
2022-08-08T05:44:19.596Z,11.27
2022-08-08T05:45:24.683Z,11.30
2022-08-08T05:46:03.471Z,11.31
2022-08-08T05:46:51.240Z,11.35
2022-08-08T05:47:52.855Z,11.36
2022-08-08T05:48:31.311Z,11.39
2022-08-08T05:49:18.473Z,11.39
2022-08-08T05:50:08.463Z,11.41
2022-08-08T05:50:58.737Z,11.42
2022-08-08T05:51:49.656Z,11.45
2022-08-08T05:52:39.682Z,11.46
2022-08-08T05:54:24.791Z,11.46
2022-08-08T05:54:28.708Z,11.49
2022-08-08T05:55:09.782Z,11.53
2022-08-08T05:56:10.261Z,11.54
2022-08-08T05:56:49.392Z,11.54
2022-08-08T05:58:05.167Z,11.57
2022-08-08T05:58:33.374Z,11.60
2022-08-08T05:59:58.878Z,11.60
2022-08-08T06:00:23.540Z,11.63
2022-08-08T06:00:59.342Z,11.64
2022-08-08T06:01:56.631Z,11.66
2022-08-08T06:02:40.658Z,11.67
2022-08-08T06:03:29.557Z,11.69
2022-08-08T06:04:23.847Z,11.69
2022-08-08T06:05:33.615Z,11.70
2022-08-08T06:05:59.600Z,11.74
2022-08-08T06:06:48.280Z,11.77
2022-08-08T06:07:38.272Z,11.77
2022-08-08T06:08:34.760Z,11.77
2022-08-08T06:09:58.588Z,11.78
2022-08-08T06:10:10.799Z,11.79
2022-08-08T06:10:58.242Z,11.81
2022-08-08T06:11:48.231Z,11.84
2022-08-08T06:12:38.223Z,11.85
2022-08-08T06:13:28.200Z,11.88
2022-08-08T06:14:19.198Z,11.90
2022-08-08T06:15:08.206Z,11.94
2022-08-08T06:15:58.177Z,11.94
2022-08-08T06:16:48.161Z,11.96
2022-08-08T06:17:51.587Z,11.96
2022-08-08T06:18:29.454Z,11.97
2022-08-08T06:19:18.139Z,12.03
2022-08-08T06:20:08.141Z,12.03
2022-08-08T06:20:58.123Z,12.07
2022-08-08T06:21:48.677Z,12.11
2022-08-08T06:22:38.100Z,12.13
2022-08-08T06:23:48.654Z,12.18
2022-08-08T06:24:23.113Z,12.19
2022-08-08T06:25:10.376Z,12.22
2022-08-08T06:26:44.627Z,12.25
2022-08-08T06:26:52.297Z,12.30
2022-08-08T06:27:38.826Z,12.33
2022-08-08T06:28:29.053Z,12.34
2022-08-08T06:29:26.821Z,12.36
2022-08-08T06:30:19.808Z,12.40
2022-08-08T06:30:59.017Z,12.43
2022-08-08T06:32:10.806Z,12.46
2022-08-08T06:32:38.997Z,12.49
2022-08-08T06:33:37.240Z,12.52
2022-08-08T06:34:25.911Z,12.54
2022-08-08T06:35:30.674Z,12.54
2022-08-08T06:36:09.425Z,12.56
2022-08-08T06:36:53.743Z,12.59
2022-08-08T06:37:39.582Z,12.63
2022-08-08T06:38:29.004Z,12.69
2022-08-08T06:39:17.945Z,12.71
2022-08-08T06:40:12.838Z,12.74
2022-08-08T06:40:58.895Z,12.77
2022-08-08T06:41:49.023Z,12.77
2022-08-08T06:42:37.877Z,12.81
2022-08-08T06:43:33.713Z,12.85
2022-08-08T06:44:25.308Z,12.89
2022-08-08T06:45:08.868Z,12.95
2022-08-08T06:45:57.837Z,12.96
2022-08-08T06:46:47.846Z,12.98
2022-08-08T06:47:52.136Z,13.01
2022-08-08T06:48:28.823Z,13.04
2022-08-08T06:49:17.794Z,13.09
2022-08-08T06:50:07.787Z,13.12
2022-08-08T06:50:58.778Z,13.13
2022-08-08T06:51:57.753Z,13.17
2022-08-08T06:52:38.768Z,13.22
2022-08-08T06:53:39.798Z,13.27
2022-08-08T06:54:18.756Z,13.29
2022-08-08T06:55:07.734Z,13.36
2022-08-08T06:56:02.712Z,13.41
2022-08-08T06:56:51.594Z,13.44
2022-08-08T06:57:44.219Z,13.48
2022-08-08T06:58:30.803Z,13.50
2022-08-08T06:59:17.696Z,13.53
2022-08-08T07:00:11.388Z,13.55
2022-08-08T07:00:58.676Z,13.59
2022-08-08T07:02:26.451Z,13.61
2022-08-08T07:02:38.689Z,13.65
2022-08-08T07:04:35.529Z,13.68
2022-08-08T07:04:40.395Z,13.75
2022-08-08T07:05:12.003Z,13.79
2022-08-08T07:06:01.699Z,13.84
2022-08-08T07:06:47.608Z,13.87
2022-08-08T07:07:37.596Z,13.90
2022-08-08T07:08:27.578Z,13.96
2022-08-08T07:09:18.012Z,14.02
2022-08-08T07:10:08.119Z,14.11
2022-08-08T07:10:57.565Z,14.23
2022-08-08T07:11:51.556Z,14.29
2022-08-08T07:12:37.533Z,14.31
2022-08-08T07:13:27.545Z,14.36
2022-08-08T07:14:17.515Z,14.42
2022-08-08T07:15:15.402Z,14.48
2022-08-08T07:16:04.840Z,14.54
2022-08-08T07:16:51.045Z,14.63
2022-08-08T07:17:56.735Z,14.79
2022-08-08T07:18:35.069Z,14.86
2022-08-08T07:19:18.458Z,14.94
2022-08-08T07:20:07.452Z,14.98
2022-08-08T07:20:57.434Z,15.07
2022-08-08T07:21:48.241Z,15.12
2022-08-08T07:22:37.436Z,15.22
2022-08-08T07:23:27.436Z,15.28
2022-08-08T07:24:17.402Z,15.33
2022-08-08T07:25:07.400Z,15.35
2022-08-08T07:25:57.381Z,15.44
2022-08-08T07:26:50.620Z,15.52
2022-08-08T07:28:00.558Z,15.56
2022-08-08T07:28:31.725Z,15.64
2022-08-08T07:29:58.784Z,15.70
2022-08-08T07:30:12.112Z,15.76
2022-08-08T07:30:58.322Z,15.78
2022-08-08T07:31:48.299Z,15.84
2022-08-08T07:32:37.303Z,15.88
2022-08-08T07:33:27.308Z,15.92
2022-08-08T07:34:20.430Z,15.98
2022-08-08T07:35:08.585Z,16.01
2022-08-08T07:35:57.292Z,16.06
2022-08-08T07:36:48.224Z,16.14
2022-08-08T07:37:56.208Z,16.26
2022-08-08T07:38:28.263Z,16.37
2022-08-08T07:39:17.353Z,16.48
2022-08-08T07:40:07.280Z,16.54
2022-08-08T07:40:57.225Z,16.66
2022-08-08T07:42:03.699Z,16.77
2022-08-08T07:42:38.201Z,16.87
2022-08-08T07:43:37.202Z,16.96
2022-08-08T07:44:37.049Z,17.02
2022-08-08T07:45:08.182Z,17.15
2022-08-08T07:46:18.409Z,17.25
2022-08-08T07:46:48.156Z,17.40
2022-08-08T07:47:38.836Z,17.53
2022-08-08T07:48:29.951Z,17.68
2022-08-08T07:49:17.134Z,17.79
2022-08-08T07:50:07.144Z,17.83
2022-08-08T07:50:57.113Z,17.86
2022-08-08T07:51:53.655Z,17.92
2022-08-08T07:52:43.639Z,17.96
2022-08-08T07:54:01.551Z,18.01
2022-08-08T07:54:26.457Z,18.09
2022-08-08T07:55:08.073Z,18.14
2022-08-08T07:55:57.061Z,18.21
2022-08-08T07:56:47.073Z,18.28
2022-08-08T07:57:37.240Z,18.34
2022-08-08T07:58:27.045Z,18.62
2022-08-08T07:59:19.492Z,18.82
2022-08-08T08:00:13.160Z,18.99
2022-08-08T08:00:58.047Z,19.23
2022-08-08T08:02:36.161Z,19.42
2022-08-08T08:02:38.936Z,19.64
2022-08-08T08:03:28.514Z,19.85
2022-08-08T08:04:16.999Z,19.98
2022-08-08T08:05:06.983Z,20.23
2022-08-08T08:05:57.964Z,20.58
2022-08-08T08:06:46.961Z,20.79
2022-08-08T08:07:38.988Z,20.94
2022-08-08T08:08:26.951Z,21.01
2022-08-08T08:09:16.932Z,21.01
2022-08-08T08:10:06.933Z,21.01
2022-08-08T08:10:56.917Z,21.06
2022-08-08T08:11:52.518Z,21.12
2022-08-08T08:12:43.254Z,21.15
2022-08-08T08:13:42.863Z,21.13
2022-08-08T08:14:17.885Z,21.15
2022-08-08T08:15:06.867Z,21.21
2022-08-08T08:15:56.856Z,21.24
2022-08-08T08:16:48.633Z,21.27
2022-08-08T08:17:48.101Z,21.26
2022-08-08T08:18:32.072Z,21.22
2022-08-08T08:19:17.874Z,21.22
2022-08-08T08:20:06.810Z,21.27
2022-08-08T08:20:56.793Z,21.31
2022-08-08T08:21:57.145Z,21.38
2022-08-08T08:22:37.772Z,21.49
2022-08-08T08:23:27.618Z,21.53
2022-08-08T08:24:18.717Z,21.58
2022-08-08T08:25:08.301Z,21.63
2022-08-08T08:25:58.531Z,21.67
2022-08-08T08:26:52.986Z,21.68
2022-08-08T08:27:37.713Z,21.70
2022-08-08T08:28:26.730Z,21.74
2022-08-08T08:29:19.542Z,21.75
2022-08-08T08:30:07.301Z,21.79
2022-08-08T08:30:56.681Z,21.83
2022-08-08T08:31:54.006Z,21.86
2022-08-08T08:32:49.308Z,21.93
2022-08-08T08:33:27.673Z,22.05
2022-08-08T08:34:16.642Z,22.09
2022-08-08T08:35:06.684Z,22.11
2022-08-08T08:36:19.954Z,22.08
2022-08-08T08:36:51.441Z,22.08
2022-08-08T08:37:59.287Z,22.09
2022-08-08T08:38:27.603Z,22.14
2022-08-08T08:39:17.430Z,22.17
2022-08-08T08:40:07.644Z,22.17
2022-08-08T08:40:57.564Z,22.17
2022-08-08T08:41:48.666Z,22.23
2022-08-08T08:42:36.837Z,22.29
2022-08-08T08:43:29.112Z,22.36
2022-08-08T08:44:16.583Z,22.41
2022-08-08T08:45:10.229Z,22.49
2022-08-08T08:45:57.752Z,22.57
2022-08-08T08:46:50.895Z,22.60
2022-08-08T08:47:43.653Z,22.63
2022-08-08T08:48:27.492Z,22.66
2022-08-08T08:49:16.490Z,22.69
2022-08-08T08:50:06.466Z,22.75
2022-08-08T08:50:57.454Z,22.82
2022-08-08T08:51:51.208Z,22.88
2022-08-08T08:52:37.434Z,22.94
2022-08-08T08:53:55.025Z,22.94
2022-08-08T08:54:17.425Z,22.97
2022-08-08T08:55:07.402Z,22.94
2022-08-08T08:56:02.031Z,22.93
2022-08-08T08:56:47.385Z,22.91
2022-08-08T08:57:36.371Z,22.93
2022-08-08T08:58:26.363Z,22.91
2022-08-08T08:59:18.727Z,22.93
2022-08-08T09:00:14.761Z,22.97
2022-08-08T09:01:08.450Z,22.99
2022-08-08T09:01:47.344Z,22.99
2022-08-08T09:02:37.178Z,22.99
2022-08-08T09:03:31.414Z,22.99
2022-08-08T09:04:31.516Z,23.04
2022-08-08T09:05:07.302Z,23.15
2022-08-08T09:05:57.274Z,23.26
2022-08-08T09:06:50.405Z,23.37
2022-08-08T09:07:39.607Z,23.45
2022-08-08T09:08:27.241Z,23.47
2022-08-08T09:09:26.080Z,23.42
2022-08-08T09:10:11.099Z,23.39
2022-08-08T09:10:57.243Z,23.39
2022-08-08T09:11:47.512Z,23.35
2022-08-08T09:12:37.184Z,23.37
2022-08-08T09:13:28.255Z,23.38
2022-08-08T09:14:16.191Z,23.45
2022-08-08T09:15:06.417Z,23.50
2022-08-08T09:16:03.829Z,23.56
2022-08-08T09:16:47.774Z,23.60
2022-08-08T09:17:41.501Z,23.63
2022-08-08T09:18:27.113Z,23.63
2022-08-08T09:19:16.135Z,23.63
2022-08-08T09:21:56.133Z,23.75
2022-08-08T09:21:56.137Z,23.72
2022-08-08T09:21:57.825Z,23.68
2022-08-08T09:22:39.602Z,23.79
2022-08-08T09:23:26.208Z,23.87
2022-08-08T09:24:17.697Z,23.86
2022-08-08T09:25:06.033Z,23.84
2022-08-08T09:26:02.279Z,23.79
2022-08-08T09:26:49.717Z,23.75
2022-08-08T09:27:55.966Z,23.79
2022-08-08T09:28:35.562Z,23.86
2022-08-08T09:29:22.192Z,23.90
2022-08-08T09:30:06.973Z,23.94
2022-08-08T09:30:55.964Z,23.93
2022-08-08T09:31:56.232Z,23.92
2022-08-08T09:32:36.952Z,23.90
2022-08-08T09:34:14.846Z,23.92
2022-08-08T09:34:32.137Z,23.97
2022-08-08T09:35:08.485Z,23.99
2022-08-08T09:35:55.903Z,24.02
2022-08-08T09:36:51.497Z,24.04
2022-08-08T09:37:58.874Z,24.12
2022-08-08T09:38:28.526Z,24.14
2022-08-08T09:39:19.254Z,24.15
2022-08-08T09:40:11.021Z,24.21
2022-08-08T09:40:57.694Z,24.24
2022-08-08T09:42:14.500Z,24.34
2022-08-08T09:42:44.295Z,24.39
2022-08-08T09:44:04.446Z,24.41
2022-08-08T09:44:18.879Z,24.41
2022-08-08T09:45:15.778Z,24.41
2022-08-08T09:46:02.922Z,24.42
2022-08-08T09:46:57.504Z,24.31
2022-08-08T09:48:05.015Z,24.24
2022-08-08T09:48:33.713Z,24.26
2022-08-08T09:49:41.729Z,24.31
2022-08-08T09:50:13.619Z,24.31
2022-08-08T09:50:56.764Z,24.33
2022-08-08T09:52:06.958Z,24.36
2022-08-08T09:52:59.434Z,24.37
2022-08-08T09:53:54.384Z,24.41
2022-08-08T09:54:36.463Z,24.48
2022-08-08T09:55:06.675Z,24.51
2022-08-08T09:56:05.728Z,24.56
2022-08-08T09:56:46.669Z,24.67
2022-08-08T09:57:46.079Z,24.79
2022-08-08T09:58:40.261Z,24.84
2022-08-08T09:59:50.533Z,24.83
2022-08-08T10:00:34.163Z,24.79
2022-08-08T10:00:57.408Z,24.64
2022-08-08T10:02:02.267Z,24.56
2022-08-08T10:02:36.613Z,24.49
2022-08-08T10:03:25.600Z,24.48
2022-08-08T10:04:35.614Z,24.48
2022-08-08T10:05:14.761Z,24.53
2022-08-08T10:05:56.586Z,24.61
2022-08-08T10:06:45.546Z,24.64
2022-08-08T10:07:36.546Z,24.68
2022-08-08T10:08:30.677Z,24.68
2022-08-08T10:09:15.534Z,24.71
2022-08-08T10:10:06.956Z,24.74
2022-08-08T10:10:55.494Z,24.82
2022-08-08T10:12:26.529Z,24.86
2022-08-08T10:12:37.543Z,24.87
2022-08-08T10:13:32.507Z,24.90
2022-08-08T10:14:28.469Z,24.92
2022-08-08T10:15:17.625Z,24.86
2022-08-08T10:15:59.352Z,24.87
2022-08-08T10:16:46.898Z,24.90
2022-08-08T10:18:05.600Z,24.94
2022-08-08T10:18:26.809Z,24.93
2022-08-08T10:19:15.403Z,24.93
2022-08-08T10:20:05.386Z,25.01
2022-08-08T10:21:00.603Z,25.02
2022-08-08T10:21:51.050Z,24.99
2022-08-08T10:22:36.376Z,25.01
2022-08-08T10:23:41.840Z,25.01
2022-08-08T10:24:29.204Z,25.05
2022-08-08T10:25:06.326Z,25.11
2022-08-08T10:25:57.093Z,25.17
2022-08-08T10:26:58.665Z,25.24
2022-08-08T10:27:36.336Z,25.34
2022-08-08T10:28:25.698Z,25.41
2022-08-08T10:29:20.796Z,25.46
2022-08-08T10:30:06.276Z,25.54
2022-08-08T10:30:59.972Z,25.60
2022-08-08T10:31:47.375Z,25.61
2022-08-08T10:32:35.503Z,25.61
2022-08-08T10:33:38.258Z,25.53
2022-08-08T10:34:18.692Z,25.44
2022-08-08T10:35:11.581Z,25.31
2022-08-08T10:36:08.567Z,25.14
2022-08-08T10:36:46.458Z,25.12
2022-08-08T10:37:35.367Z,25.19
2022-08-08T10:38:25.197Z,25.23
2022-08-08T10:39:15.216Z,25.19
2022-08-08T10:40:05.157Z,25.17
2022-08-08T10:40:55.188Z,25.16
2022-08-08T10:41:58.916Z,25.17
2022-08-08T10:42:36.158Z,25.22